Viroqua, WI

4:57 AM CDT on June 24, 2017 (GMT -0500)
Viroqua

Weather History for KY51 - December, 2013

Change the Weather History Date:

Tuesday, December 3, 2013

  Actual Average (KCMY) Record (KCMY)
Temperature  
Mean Temperature 33 °F -  
Max Temperature 34 °F 31 °F 63 °F (1982)
Min Temperature 32 °F 13 °F -20 °F (1985)
Degree Days  
Heating Degree Days 32    
Moisture  
Dew Point 33 °F    
Average Humidity 100    
Maximum Humidity 100    
Minimum Humidity 100    
Precipitation  
Precipitation 0.01 in - - ()
Sea Level Pressure  
Sea Level Pressure 29.66 in    
Wind  
Wind Speed 11 mph (East)    
Max Wind Speed 15 mph    
Max Gust Speed 18 mph    
Visibility 1 miles    
Events      
Averages and records for this station are not official NWS values.
T = Trace of Precipitation, MM = Missing Value Source: NWS Daily Summary

Daily Weather History Graph

Daily Weather History Graph

Search for Another Location

Airport or City:

Trip Planner

Search our weather history database for the weather conditions in past years. The results will help you decide how hot, cold, wet, or windy it might be!

Date:

Astronomy

Dec. 03, 2013 Rise Set
Actual Time 7:19 AM CST 4:27 PM CST
Civil Twilight 6:47 AM CST 4:59 PM CST
Nautical Twilight 6:11 AM CST 5:35 PM CST
Astronomical Twilight 5:36 AM CST 6:10 PM CST
Moon 7:48 AM CST (12/3) 5:32 PM CST (12/3)
Length of Visible Light 10h 12m
Length of Day
9h 08m
New Moon, 1% of the Moon is Illuminated
Dec 3
New Moon
Dec 9
First Quarter
Dec 17
Full
Dec 25
Last Quarter
Jan 1
New

Hourly Weather History & Observations

Time (CST) Temp. Windchill Dew Point Humidity Pressure Visibility Wind Dir Wind Speed Gust Speed Precip Events Conditions
12:15 AM 32.5 °F 22.7 °F 32.5 °F 100% 29.64 in 2.0 mi SE 13.8 mph - N/A   Overcast
12:35 AM 32.5 °F 23.2 °F 32.5 °F 100% 29.65 in 1.8 mi SE 12.7 mph - N/A   Overcast
12:55 AM 32.7 °F 23.9 °F 32.7 °F 100% 29.65 in 1.5 mi SE 11.5 mph - N/A   Overcast
1:15 AM 32.7 °F 24.5 °F 32.7 °F 100% 29.66 in 1.0 mi ESE 10.4 mph - N/A   Overcast
1:35 AM 32.7 °F 25.7 °F 32.7 °F 100% 29.64 in 0.8 mi ESE 8.1 mph - N/A   Overcast
1:55 AM 32.5 °F 24.8 °F 32.5 °F 100% 29.65 in 0.8 mi ESE 9.2 mph - N/A   Overcast
2:15 AM 32.9 °F 24.7 °F 32.9 °F 100% 29.65 in 0.5 mi ESE 10.4 mph - N/A   Overcast
2:35 AM 32.9 °F 24.7 °F 32.9 °F 100% 29.65 in 0.5 mi SE 10.4 mph - N/A   Overcast
2:55 AM 32.9 °F 23.7 °F 32.9 °F 100% 29.63 in 0.5 mi SE 12.7 mph - N/A   Overcast
3:15 AM 32.9 °F 23.7 °F 32.9 °F 100% 29.63 in 0.2 mi SE 12.7 mph - N/A   Overcast
3:35 AM 32.9 °F 24.7 °F 32.9 °F 100% 29.63 in 0.2 mi ESE 10.4 mph - N/A   Overcast
3:55 AM 32.9 °F 25.3 °F 32.9 °F 100% 29.64 in 0.2 mi ESE 9.2 mph - N/A   Overcast
4:15 AM 33.1 °F 25.5 °F 33.1 °F 100% 29.64 in 0.2 mi SE 9.2 mph - N/A   Overcast
4:35 AM 33.1 °F 27.7 °F 33.1 °F 100% 29.65 in 0.2 mi ESE 5.8 mph - N/A   Overcast
4:55 AM 33.1 °F 26.1 °F 33.1 °F 100% 29.64 in 0.2 mi ESE 8.1 mph - N/A   Overcast
5:15 AM 32.9 °F 26.7 °F 32.9 °F 100% 29.64 in 0.2 mi East 6.9 mph - N/A   Overcast
5:35 AM 32.9 °F 27.5 °F 32.9 °F 100% 29.65 in 0.2 mi ESE 5.8 mph - N/A   Overcast
5:55 AM 32.9 °F 25.9 °F 32.9 °F 100% 29.64 in 0.2 mi East 8.1 mph - N/A   Overcast
6:15 AM 32.9 °F 25.3 °F 32.9 °F 100% 29.64 in 0.2 mi East 9.2 mph - N/A   Overcast
6:35 AM 32.9 °F 24.1 °F 32.9 °F 100% 29.63 in 0.2 mi ESE 11.5 mph - N/A   Overcast
6:55 AM 32.9 °F 24.1 °F 32.9 °F 100% 29.63 in 0.2 mi ESE 11.5 mph - N/A   Overcast
7:15 AM 33.1 °F 24.9 °F 33.1 °F 100% 29.63 in 0.2 mi East 10.4 mph - N/A   Overcast
7:35 AM 33.1 °F 25.5 °F 33.1 °F 100% 29.64 in 0.2 mi East 9.2 mph - N/A   Overcast
7:55 AM 33.1 °F 25.5 °F 33.1 °F 100% 29.64 in 0.2 mi East 9.2 mph - N/A   Overcast
8:15 AM 33.1 °F 25.5 °F 33.1 °F 100% 29.64 in 0.2 mi East 9.2 mph - N/A   Overcast
8:35 AM 33.3 °F 25.7 °F 33.3 °F 100% 29.64 in 0.2 mi East 9.2 mph - N/A   Overcast
8:55 AM 33.3 °F 26.4 °F 33.3 °F 100% 29.65 in 0.2 mi East 8.1 mph - N/A   Overcast
9:15 AM 33.6 °F 27.5 °F 33.6 °F 100% 29.66 in 0.2 mi East 6.9 mph - N/A   Overcast
9:35 AM 33.8 °F 27.7 °F 33.8 °F 100% 29.66 in 0.2 mi East 6.9 mph - N/A   Overcast
9:55 AM 33.8 °F 27.0 °F 33.8 °F 100% 29.68 in 0.2 mi East 8.1 mph - N/A   Overcast
10:15 AM 33.8 °F 25.8 °F 33.8 °F 100% 29.68 in 0.2 mi East 10.4 mph - N/A   Overcast
10:35 AM 33.8 °F 25.3 °F 33.8 °F 100% 29.67 in 0.2 mi East 11.5 mph - N/A   Overcast
10:55 AM 33.8 °F 26.4 °F 33.8 °F 100% 29.67 in 0.2 mi East 9.2 mph - N/A   Overcast
11:15 AM 34.0 °F 26.0 °F 34.0 °F 100% 29.66 in 0.2 mi East 10.4 mph - N/A   Overcast
11:35 AM 34.2 °F 26.8 °F 34.2 °F 100% 29.66 in 0.2 mi East 9.2 mph - N/A   Overcast
11:55 AM 34.2 °F 25.7 °F 34.2 °F 100% 29.66 in 0.2 mi East 11.5 mph - N/A   Overcast
12:15 PM 34.3 °F 27.0 °F 34.3 °F 100% 29.66 in 0.2 mi ESE 9.2 mph - N/A   Overcast
12:35 PM 34.3 °F 26.5 °F 34.3 °F 100% 29.66 in 0.2 mi East 10.4 mph - N/A   Overcast
12:55 PM 34.7 °F 26.9 °F 34.7 °F 100% 29.65 in 0.2 mi East 10.4 mph - N/A   Overcast
1:15 PM 34.7 °F 27.5 °F 34.7 °F 100% 29.65 in 0.2 mi East 9.2 mph - N/A   Overcast
1:35 PM 34.7 °F 28.8 °F 34.7 °F 100% 29.65 in 0.2 mi ENE 6.9 mph - N/A   Overcast
1:55 PM 34.7 °F 30.6 °F 34.7 °F 100% 29.67 in 0.2 mi NNE 4.6 mph - N/A   Overcast
2:15 PM 34.5 °F 27.9 °F 34.5 °F 100% 29.65 in 0.2 mi NNE 8.1 mph - N/A   Overcast
2:35 PM 34.2 °F 26.2 °F 34.2 °F 100% 29.65 in 0.2 mi NE 10.4 mph - N/A   Overcast
2:55 PM 34.2 °F 26.2 °F 34.2 °F 100% 29.65 in 0.2 mi East 10.4 mph - N/A   Overcast
3:15 PM 34.2 °F 25.7 °F 34.2 °F 100% 29.64 in 0.2 mi East 11.5 mph 17.3 mph N/A   Overcast
3:35 PM 34.2 °F 25.2 °F 34.2 °F 100% 29.64 in 0.8 mi East 12.7 mph - 0.01 in   Overcast
3:55 PM 34.2 °F 24.8 °F 34.2 °F 100% 29.64 in 1.0 mi East 13.8 mph - 0.01 in   Overcast
4:15 PM 34.2 °F 25.2 °F 34.2 °F 100% 29.64 in 1.0 mi East 12.7 mph 17.3 mph N/A   Overcast
4:35 PM 34.0 °F 24.6 °F 34.0 °F 100% 29.64 in 2.0 mi East 13.8 mph 18.4 mph N/A   Overcast
4:55 PM 33.8 °F 23.9 °F 33.8 °F 100% 29.66 in 3.0 mi East 15.0 mph - N/A   Overcast
5:15 PM 33.8 °F 26.4 °F 33.8 °F 100% 29.67 in 3.0 mi East 9.2 mph - N/A   Overcast
5:35 PM 33.8 °F 25.3 °F 33.8 °F 100% 29.67 in 3.0 mi East 11.5 mph - N/A   Overcast
5:55 PM 33.8 °F 24.8 °F 33.8 °F 100% 29.68 in 2.5 mi ENE 12.7 mph 17.3 mph N/A   Overcast
6:15 PM 33.3 °F 24.6 °F 33.3 °F 100% 29.69 in 1.8 mi ENE 11.5 mph 16.1 mph N/A   Overcast
6:35 PM 33.1 °F 23.4 °F 33.1 °F 100% 29.69 in 1.2 mi East 13.8 mph 17.3 mph N/A   Overcast
6:55 PM 32.9 °F 23.7 °F 32.9 °F 100% 29.70 in 1.0 mi East 12.7 mph - N/A   Overcast
7:15 PM 32.5 °F 23.7 °F 32.5 °F 100% 29.70 in 1.0 mi East 11.5 mph 17.3 mph N/A   Overcast
7:35 PM 32.5 °F 23.7 °F 32.5 °F 100% 29.70 in 1.0 mi East 11.5 mph - N/A   Overcast
7:55 PM 32.4 °F 23.0 °F 32.4 °F 100% 29.70 in 0.8 mi East 12.7 mph - N/A   Overcast
8:15 PM 32.5 °F 24.2 °F 32.5 °F 100% 29.71 in 0.8 mi East 10.4 mph - N/A   Overcast
8:35 PM 32.4 °F 23.5 °F 32.4 °F 100% 29.71 in 0.8 mi East 11.5 mph - N/A   Overcast
8:55 PM 32.4 °F 23.5 °F 32.4 °F 100% 29.71 in 0.8 mi East 11.5 mph - N/A   Overcast
9:15 PM 32.5 °F 24.2 °F 32.5 °F 100% 29.71 in 0.8 mi East 10.4 mph - N/A   Overcast
9:35 PM 32.5 °F 23.2 °F 32.5 °F 100% 29.70 in 0.8 mi East 12.7 mph - N/A   Overcast
9:55 PM 32.5 °F 23.7 °F 32.5 °F 100% 29.70 in 0.8 mi East 11.5 mph - N/A   Overcast
10:15 PM 32.5 °F 22.3 °F 32.5 °F 100% 29.69 in 0.8 mi East 15.0 mph - N/A   Overcast
10:35 PM 32.5 °F 22.7 °F 32.5 °F 100% 29.66 in 0.8 mi East 13.8 mph - N/A   Overcast
10:55 PM 32.7 °F 24.5 °F 32.7 °F 100% 29.69 in 0.8 mi ENE 10.4 mph - N/A   Overcast
11:15 PM 32.5 °F 23.7 °F 32.5 °F 100% 29.70 in 0.8 mi East 11.5 mph - N/A   Overcast
11:35 PM 32.5 °F 24.2 °F 32.5 °F 100% 29.70 in 0.8 mi East 10.4 mph - N/A   Overcast
11:55 PM 32.9 °F 25.3 °F 32.9 °F 100% 29.71 in 0.8 mi East 9.2 mph - N/A   Overcast